createdAt,value
2019-05-16T00:00:08.374Z,0.00
2019-05-16T00:01:09.186Z,0.00
2019-05-16T00:02:08.240Z,0.00
2019-05-16T00:03:08.034Z,0.00
2019-05-16T00:04:08.762Z,0.00
2019-05-16T00:05:08.383Z,0.00
2019-05-16T00:06:08.450Z,0.00
2019-05-16T00:07:08.064Z,0.00
2019-05-16T00:08:11.901Z,0.00
2019-05-16T00:09:08.027Z,0.00
2019-05-16T00:10:08.355Z,0.00
2019-05-16T00:11:08.453Z,0.00
2019-05-16T00:12:08.585Z,0.00
2019-05-16T00:13:08.494Z,0.00
2019-05-16T00:14:08.269Z,0.00
2019-05-16T00:15:08.733Z,0.00
2019-05-16T00:16:07.980Z,0.00
2019-05-16T00:17:08.367Z,0.00
2019-05-16T00:18:08.589Z,0.00
2019-05-16T00:19:08.577Z,0.00
2019-05-16T00:20:08.959Z,0.00
2019-05-16T00:21:08.547Z,0.00
2019-05-16T00:22:08.547Z,0.00
2019-05-16T00:23:07.898Z,0.00
2019-05-16T00:24:08.248Z,0.00
2019-05-16T00:25:08.483Z,0.00
2019-05-16T00:26:07.892Z,0.00
2019-05-16T00:27:08.322Z,0.00
2019-05-16T00:28:06.229Z,0.00
2019-05-16T00:29:08.011Z,0.00
2019-05-16T00:30:08.611Z,0.00
2019-05-16T00:31:08.428Z,0.00
2019-05-16T00:32:08.424Z,0.00
2019-05-16T00:33:08.341Z,0.00
2019-05-16T00:34:06.164Z,0.00
2019-05-16T00:35:06.125Z,0.00
2019-05-16T00:36:08.939Z,0.00
2019-05-16T00:37:06.095Z,0.00
2019-05-16T00:38:08.676Z,0.00
2019-05-16T00:39:08.218Z,0.00
2019-05-16T00:40:08.066Z,0.00
2019-05-16T00:41:08.338Z,0.00
2019-05-16T00:42:06.041Z,0.00
2019-05-16T00:43:08.028Z,0.00
2019-05-16T00:44:08.237Z,0.00
2019-05-16T00:45:06.034Z,0.00
2019-05-16T00:46:08.072Z,0.00
2019-05-16T00:47:08.485Z,0.00
2019-05-16T00:48:05.969Z,0.00
2019-05-16T00:49:08.127Z,0.00
2019-05-16T00:50:05.958Z,0.00
2019-05-16T00:51:07.811Z,0.00
2019-05-16T00:52:07.781Z,0.00
2019-05-16T00:53:05.913Z,0.00
2019-05-16T00:54:08.077Z,0.00
2019-05-16T00:55:05.889Z,0.00
2019-05-16T00:56:07.881Z,0.00
2019-05-16T00:57:08.336Z,0.00
2019-05-16T00:58:05.856Z,0.00
2019-05-16T00:59:07.791Z,0.00
2019-05-16T01:00:08.124Z,0.00
2019-05-16T01:01:08.329Z,0.00
2019-05-16T01:02:05.816Z,0.00
2019-05-16T01:03:08.004Z,0.00
2019-05-16T01:04:07.890Z,0.00
2019-05-16T01:05:08.279Z,0.00
2019-05-16T01:06:18.421Z,0.00
2019-05-16T01:07:08.213Z,0.00
2019-05-16T01:08:07.747Z,0.00
2019-05-16T01:09:05.764Z,0.00
2019-05-16T01:10:05.725Z,0.00
2019-05-16T01:11:07.772Z,0.00
2019-05-16T01:12:05.711Z,0.00
2019-05-16T01:13:07.854Z,0.00
2019-05-16T01:14:05.709Z,0.00
2019-05-16T01:15:07.664Z,0.00
2019-05-16T01:16:05.658Z,0.00
2019-05-16T01:17:05.646Z,0.00
2019-05-16T01:18:07.849Z,0.00
2019-05-16T01:19:05.661Z,0.00
2019-05-16T01:20:05.649Z,0.00
2019-05-16T01:21:07.698Z,0.00
2019-05-16T01:22:08.152Z,0.00
2019-05-16T01:23:05.582Z,0.00
2019-05-16T01:24:07.942Z,0.00
2019-05-16T01:25:05.916Z,0.00
2019-05-16T01:26:07.817Z,0.00
2019-05-16T01:27:05.542Z,0.00
2019-05-16T01:28:05.528Z,0.00
2019-05-16T01:29:05.520Z,0.00
2019-05-16T01:30:05.550Z,0.00
2019-05-16T01:31:05.497Z,0.00
2019-05-16T01:32:05.483Z,0.00
2019-05-16T01:33:05.471Z,0.00
2019-05-16T01:34:07.666Z,0.00
2019-05-16T01:35:05.489Z,0.00
2019-05-16T01:36:05.440Z,0.00
2019-05-16T01:37:05.425Z,0.00
2019-05-16T01:38:05.415Z,0.00
2019-05-16T01:39:07.801Z,0.00
2019-05-16T01:40:05.431Z,0.00
2019-05-16T01:41:05.382Z,0.00
2019-05-16T01:42:05.378Z,0.00
2019-05-16T01:43:05.367Z,0.00
2019-05-16T01:44:07.700Z,0.00
2019-05-16T01:45:05.364Z,0.00
2019-05-16T01:46:05.325Z,0.00
2019-05-16T01:48:08.256Z,0.00
2019-05-16T01:49:05.296Z,0.00
2019-05-16T01:50:05.313Z,0.00
2019-05-16T01:51:07.616Z,0.00
2019-05-16T01:52:05.267Z,0.00
2019-05-16T01:53:05.248Z,0.00
2019-05-16T01:54:05.240Z,0.00
2019-05-16T01:55:05.248Z,0.00
2019-05-16T01:56:05.224Z,0.00
2019-05-16T01:57:05.201Z,0.00
2019-05-16T01:58:05.193Z,0.00
2019-05-16T01:59:05.181Z,0.00
2019-05-16T02:00:05.212Z,0.00
2019-05-16T02:01:12.214Z,0.00
2019-05-16T02:02:08.195Z,0.00
2019-05-16T02:03:05.151Z,0.00
2019-05-16T02:04:05.136Z,0.00
2019-05-16T02:05:05.146Z,0.00
2019-05-16T02:06:05.108Z,0.00
2019-05-16T02:07:05.096Z,0.00
2019-05-16T02:08:05.087Z,0.00
2019-05-16T02:09:05.071Z,0.00
2019-05-16T02:10:05.088Z,0.00
2019-05-16T02:11:05.052Z,0.00
2019-05-16T02:12:05.039Z,0.00
2019-05-16T02:13:05.023Z,0.00
2019-05-16T02:14:05.015Z,0.00
2019-05-16T02:15:05.039Z,0.00
2019-05-16T02:16:05.018Z,0.00
2019-05-16T02:17:04.982Z,0.00
2019-05-16T02:18:04.973Z,0.00
2019-05-16T02:19:04.961Z,0.00
2019-05-16T02:20:04.969Z,0.00
2019-05-16T02:21:04.973Z,0.00
2019-05-16T02:22:04.939Z,0.00
2019-05-16T02:23:04.913Z,0.00
2019-05-16T02:24:04.900Z,0.00
2019-05-16T02:25:04.897Z,0.00
2019-05-16T02:26:04.904Z,0.00
2019-05-16T02:27:04.868Z,0.00
2019-05-16T02:28:04.864Z,0.00
2019-05-16T02:29:04.847Z,0.00
2019-05-16T02:30:04.838Z,0.00
2019-05-16T02:31:04.852Z,0.00
2019-05-16T02:32:04.831Z,0.00
2019-05-16T02:33:04.805Z,0.00
2019-05-16T02:34:05.177Z,0.00
2019-05-16T02:35:04.790Z,0.00
2019-05-16T02:36:04.820Z,0.00
2019-05-16T02:37:24.222Z,0.00
2019-05-16T02:38:05.753Z,0.00
2019-05-16T02:39:04.742Z,0.00
2019-05-16T02:40:04.755Z,0.00
2019-05-16T02:41:04.740Z,0.00
2019-05-16T02:42:04.720Z,0.00
2019-05-16T02:43:04.701Z,0.00
2019-05-16T02:44:04.767Z,0.00
2019-05-16T02:45:04.673Z,0.00
2019-05-16T02:46:04.792Z,0.00
2019-05-16T02:47:04.681Z,0.00
2019-05-16T02:48:04.636Z,0.00
2019-05-16T02:49:04.631Z,0.00
2019-05-16T02:50:04.614Z,0.00
2019-05-16T02:51:04.608Z,0.00
2019-05-16T02:52:04.620Z,0.00
2019-05-16T02:53:04.586Z,0.00
2019-05-16T02:54:04.569Z,0.00
2019-05-16T02:55:04.559Z,0.00
2019-05-16T02:56:04.550Z,0.00
2019-05-16T02:57:04.578Z,0.00
2019-05-16T02:58:04.525Z,0.00
2019-05-16T02:59:04.525Z,0.00
2019-05-16T03:00:04.504Z,0.00
2019-05-16T03:01:04.493Z,0.00
2019-05-16T03:02:04.514Z,0.00
2019-05-16T03:03:04.474Z,0.00
2019-05-16T03:04:04.464Z,0.00
2019-05-16T03:05:04.455Z,0.00
2019-05-16T03:06:04.445Z,0.00
2019-05-16T03:07:04.452Z,0.00
2019-05-16T03:08:04.424Z,0.00
2019-05-16T03:09:05.375Z,0.00
2019-05-16T03:10:04.408Z,0.00
2019-05-16T03:11:04.389Z,0.00
2019-05-16T03:12:04.429Z,0.00
2019-05-16T03:13:04.359Z,0.00
2019-05-16T03:14:04.351Z,0.00
2019-05-16T03:15:04.348Z,0.00
2019-05-16T03:16:04.353Z,0.00
2019-05-16T03:17:04.348Z,0.00
2019-05-16T03:18:04.770Z,0.00
2019-05-16T03:19:04.292Z,0.00
2019-05-16T03:20:04.280Z,0.00
2019-05-16T03:21:04.280Z,0.00
2019-05-16T03:22:04.306Z,0.00
2019-05-16T03:23:04.268Z,0.00
2019-05-16T03:24:04.239Z,0.00
2019-05-16T03:25:04.232Z,0.00
2019-05-16T03:26:04.220Z,0.00
2019-05-16T03:27:04.245Z,0.00
2019-05-16T03:28:04.229Z,0.00
2019-05-16T03:29:04.192Z,0.00
2019-05-16T03:30:04.177Z,0.00
2019-05-16T03:31:05.766Z,4.00
2019-05-16T03:32:04.186Z,4.00
2019-05-16T03:33:05.612Z,4.00
2019-05-16T03:34:07.331Z,4.00
2019-05-16T03:35:05.701Z,0.00
2019-05-16T03:36:05.113Z,0.00
2019-05-16T03:37:05.069Z,0.00
2019-05-16T03:38:05.645Z,0.00
2019-05-16T03:39:04.067Z,0.00
2019-05-16T03:40:04.057Z,0.00
2019-05-16T03:41:04.053Z,0.00
2019-05-16T03:42:04.038Z,0.00
2019-05-16T03:43:04.175Z,0.00
2019-05-16T03:44:04.011Z,4.00
2019-05-16T03:45:04.002Z,0.00
2019-05-16T03:46:03.990Z,4.00
2019-05-16T03:47:03.982Z,4.00
2019-05-16T03:48:03.997Z,4.00
2019-05-16T03:49:03.960Z,4.00
2019-05-16T03:50:03.956Z,0.00
2019-05-16T03:51:03.932Z,4.00
2019-05-16T03:52:03.927Z,4.00
2019-05-16T03:53:03.990Z,4.00
2019-05-16T03:54:03.899Z,4.00
2019-05-16T03:55:03.902Z,4.00
2019-05-16T03:56:03.922Z,4.00
2019-05-16T03:57:03.876Z,4.00
2019-05-16T03:58:03.892Z,4.00
2019-05-16T03:59:03.844Z,4.00
2019-05-16T04:00:03.843Z,4.00
2019-05-16T04:01:03.840Z,8.00
2019-05-16T04:02:03.825Z,4.00
2019-05-16T04:03:03.842Z,4.00
2019-05-16T04:04:03.787Z,8.00
2019-05-16T04:05:03.778Z,4.00
2019-05-16T04:06:03.771Z,8.00
2019-05-16T04:07:03.757Z,4.00
2019-05-16T04:08:14.859Z,8.00
2019-05-16T04:09:04.760Z,8.00
2019-05-16T04:10:03.723Z,8.00
2019-05-16T04:11:03.712Z,8.00
2019-05-16T04:12:03.710Z,8.00
2019-05-16T04:13:03.689Z,12.00
2019-05-16T04:14:03.728Z,12.00
2019-05-16T04:15:03.666Z,8.00
2019-05-16T04:16:03.661Z,12.00
2019-05-16T04:17:03.657Z,12.00
2019-05-16T04:18:03.665Z,12.00
2019-05-16T04:19:03.644Z,12.00
2019-05-16T04:20:03.610Z,12.00
2019-05-16T04:21:03.601Z,12.00
2019-05-16T04:22:03.611Z,12.00
2019-05-16T04:23:03.579Z,12.00
2019-05-16T04:24:03.603Z,12.00
2019-05-16T04:25:03.553Z,12.00
2019-05-16T04:26:03.550Z,8.00
2019-05-16T04:27:03.539Z,12.00
2019-05-16T04:28:03.524Z,8.00
2019-05-16T04:29:03.547Z,12.00
2019-05-16T04:30:03.546Z,12.00
2019-05-16T04:31:03.491Z,8.00
2019-05-16T04:32:03.474Z,8.00
2019-05-16T04:33:03.476Z,12.00
2019-05-16T04:34:03.492Z,12.00
2019-05-16T04:35:03.447Z,8.00
2019-05-16T04:36:03.431Z,8.00
2019-05-16T04:37:03.431Z,12.00
2019-05-16T04:38:03.411Z,12.00
2019-05-16T04:39:03.413Z,8.00
2019-05-16T04:40:03.419Z,8.00
2019-05-16T04:41:03.376Z,12.00
2019-05-16T04:42:03.374Z,12.00
2019-05-16T04:43:03.354Z,12.00
2019-05-16T04:44:04.872Z,12.00
2019-05-16T04:45:03.351Z,12.00
2019-05-16T04:46:03.326Z,16.00
2019-05-16T04:47:03.313Z,16.00
2019-05-16T04:48:03.318Z,16.00
2019-05-16T04:49:03.287Z,16.00
2019-05-16T04:50:03.314Z,16.00
2019-05-16T04:51:03.275Z,16.00
2019-05-16T04:52:03.260Z,16.00
2019-05-16T04:53:03.246Z,20.00
2019-05-16T04:54:06.800Z,20.00
2019-05-16T04:55:03.250Z,20.00
2019-05-16T04:56:03.213Z,24.00
2019-05-16T04:57:03.205Z,24.00
2019-05-16T04:58:03.189Z,28.00
2019-05-16T04:59:03.177Z,28.00
2019-05-16T05:00:03.203Z,28.00
2019-05-16T05:01:03.154Z,32.00
2019-05-16T05:02:03.144Z,36.00
2019-05-16T05:03:03.141Z,36.00
2019-05-16T05:04:10.851Z,36.00
2019-05-16T05:05:04.141Z,40.00
2019-05-16T05:06:03.113Z,40.00
2019-05-16T05:07:03.092Z,44.00
2019-05-16T05:08:03.086Z,44.00
2019-05-16T05:09:03.692Z,40.00
2019-05-16T05:10:03.099Z,44.00
2019-05-16T05:11:03.070Z,44.00
2019-05-16T05:12:04.524Z,44.00
2019-05-16T05:13:03.031Z,48.00
2019-05-16T05:14:03.017Z,52.00
2019-05-16T05:15:03.026Z,56.00
2019-05-16T05:16:03.016Z,60.00
2019-05-16T05:17:05.367Z,68.00
2019-05-16T05:18:02.963Z,64.00
2019-05-16T05:19:02.949Z,64.00
2019-05-16T05:20:02.959Z,68.00
2019-05-16T05:21:03.047Z,72.00
2019-05-16T05:22:02.927Z,72.00
2019-05-16T05:23:02.910Z,76.00
2019-05-16T05:24:02.889Z,80.00
2019-05-16T05:25:02.878Z,80.00
2019-05-16T05:26:02.892Z,84.00
2019-05-16T05:27:02.862Z,84.00
2019-05-16T05:28:02.859Z,84.00
2019-05-16T05:29:02.837Z,88.00
2019-05-16T05:30:02.826Z,84.00
2019-05-16T05:31:02.852Z,88.00
2019-05-16T05:32:04.925Z,88.00
2019-05-16T05:33:02.794Z,92.00
2019-05-16T05:34:02.780Z,92.00
2019-05-16T05:35:02.773Z,96.00
2019-05-16T05:36:02.781Z,96.00
2019-05-16T05:37:02.777Z,100.00
2019-05-16T05:38:02.740Z,100.00
2019-05-16T05:39:11.564Z,100.00
2019-05-16T05:40:03.708Z,96.00
2019-05-16T05:41:02.730Z,100.00
2019-05-16T05:42:02.687Z,100.00
2019-05-16T05:43:02.724Z,96.00
2019-05-16T05:44:02.670Z,96.00
2019-05-16T05:45:02.657Z,96.00
2019-05-16T05:46:02.671Z,92.00
2019-05-16T05:47:02.638Z,92.00
2019-05-16T05:48:02.634Z,88.00
2019-05-16T05:49:02.612Z,84.00
2019-05-16T05:50:02.601Z,88.00
2019-05-16T05:51:02.622Z,88.00
2019-05-16T05:52:02.578Z,80.00
2019-05-16T05:53:02.568Z,80.00
2019-05-16T05:54:02.560Z,76.00
2019-05-16T05:55:02.546Z,72.00
2019-05-16T05:56:02.560Z,68.00
2019-05-16T05:57:02.520Z,64.00
2019-05-16T05:58:02.519Z,60.00
2019-05-16T05:59:02.500Z,56.00
2019-05-16T06:00:02.494Z,52.00
2019-05-16T06:01:02.499Z,52.00
2019-05-16T06:02:02.480Z,52.00
2019-05-16T06:03:02.455Z,52.00
2019-05-16T06:04:02.437Z,48.00
2019-05-16T06:05:02.433Z,48.00
2019-05-16T06:06:02.453Z,52.00
2019-05-16T06:07:02.405Z,52.00
2019-05-16T06:08:02.405Z,52.00
2019-05-16T06:09:02.388Z,52.00
2019-05-16T06:10:02.374Z,56.00
2019-05-16T06:11:02.366Z,56.00
2019-05-16T06:12:02.376Z,56.00
2019-05-16T06:13:02.343Z,64.00
2019-05-16T06:14:02.329Z,64.00
2019-05-16T06:15:08.286Z,68.00
2019-05-16T06:16:03.332Z,68.00
2019-05-16T06:17:02.313Z,72.00
2019-05-16T06:18:02.293Z,72.00
2019-05-16T06:19:02.272Z,80.00
2019-05-16T06:20:02.262Z,80.00
2019-05-16T06:21:02.246Z,84.00
2019-05-16T06:22:02.313Z,84.00
2019-05-16T06:23:02.224Z,80.00
2019-05-16T06:24:02.211Z,80.00
2019-05-16T06:25:02.243Z,76.00
2019-05-16T06:26:02.194Z,72.00
2019-05-16T06:27:02.208Z,68.00
2019-05-16T06:28:02.189Z,64.00
2019-05-16T06:29:02.164Z,60.00
2019-05-16T06:30:02.147Z,60.00
2019-05-16T06:31:02.621Z,60.00
2019-05-16T06:32:02.156Z,60.00
2019-05-16T06:33:02.112Z,60.00
2019-05-16T06:34:07.762Z,64.00
2019-05-16T06:35:03.097Z,72.00
2019-05-16T06:36:02.077Z,76.00
2019-05-16T06:37:02.107Z,84.00
2019-05-16T06:38:02.058Z,88.00
2019-05-16T06:39:02.046Z,88.00
2019-05-16T06:40:02.039Z,96.00
2019-05-16T06:41:02.023Z,96.00
2019-05-16T06:42:02.053Z,92.00
2019-05-16T06:43:02.005Z,88.00
2019-05-16T06:44:01.992Z,88.00
2019-05-16T06:45:01.973Z,88.00
2019-05-16T06:46:01.971Z,96.00
2019-05-16T06:47:16.043Z,92.00
2019-05-16T06:48:02.946Z,96.00
2019-05-16T06:49:01.931Z,100.00
2019-05-16T06:50:01.955Z,112.00
2019-05-16T06:51:03.133Z,120.00
2019-05-16T06:52:01.936Z,132.00
2019-05-16T06:53:01.919Z,136.00
2019-05-16T06:54:02.022Z,136.00
2019-05-16T06:55:01.867Z,136.00
2019-05-16T06:56:01.888Z,132.00
2019-05-16T06:57:01.838Z,132.00
2019-05-16T06:58:01.874Z,132.00
2019-05-16T06:59:01.911Z,136.00
2019-05-16T07:00:01.809Z,140.00
2019-05-16T07:01:03.633Z,148.00
2019-05-16T07:02:01.861Z,152.00
2019-05-16T07:03:01.797Z,152.00
2019-05-16T07:04:01.762Z,152.00
2019-05-16T07:05:01.774Z,144.00
2019-05-16T07:06:01.750Z,132.00
2019-05-16T07:07:02.969Z,120.00
2019-05-16T07:08:01.738Z,112.00
2019-05-16T07:09:01.702Z,108.00
2019-05-16T07:10:04.627Z,100.00
2019-05-16T07:11:01.680Z,100.00
2019-05-16T07:12:01.677Z,100.00
2019-05-16T07:13:01.687Z,100.00
2019-05-16T07:14:01.661Z,100.00
2019-05-16T07:15:02.320Z,108.00
2019-05-16T07:16:01.625Z,104.00
2019-05-16T07:17:01.615Z,108.00
2019-05-16T07:18:01.605Z,104.00
2019-05-16T07:19:01.616Z,104.00
2019-05-16T07:20:01.588Z,100.00
2019-05-16T07:21:01.582Z,100.00
2019-05-16T07:22:01.556Z,100.00
2019-05-16T07:23:01.547Z,108.00
2019-05-16T07:24:01.557Z,112.00
2019-05-16T07:25:01.533Z,116.00
2019-05-16T07:26:01.522Z,120.00
2019-05-16T07:27:01.549Z,128.00
2019-05-16T07:28:01.492Z,140.00
2019-05-16T07:29:01.510Z,156.00
2019-05-16T07:30:01.583Z,172.00
2019-05-16T07:31:14.476Z,184.00
2019-05-16T07:32:02.446Z,188.00
2019-05-16T07:33:01.447Z,196.00
2019-05-16T07:34:01.449Z,200.00
2019-05-16T07:35:01.414Z,200.00
2019-05-16T07:36:01.434Z,196.00
2019-05-16T07:37:01.392Z,192.00
2019-05-16T07:38:01.396Z,184.00
2019-05-16T07:39:01.392Z,176.00
2019-05-16T07:40:16.316Z,180.00
2019-05-16T07:41:02.345Z,184.00
2019-05-16T07:42:01.343Z,188.00
2019-05-16T07:43:01.319Z,176.00
2019-05-16T07:44:01.342Z,160.00
2019-05-16T07:45:01.311Z,144.00
2019-05-16T07:46:01.293Z,136.00
2019-05-16T07:47:01.335Z,132.00
2019-05-16T07:48:01.262Z,128.00
2019-05-16T07:49:01.463Z,132.00
2019-05-16T07:50:01.249Z,136.00
2019-05-16T07:51:01.244Z,144.00
2019-05-16T07:52:01.223Z,152.00
2019-05-16T07:53:01.213Z,156.00
2019-05-16T07:54:01.239Z,160.00
2019-05-16T07:55:03.908Z,164.00
2019-05-16T07:56:01.182Z,168.00
2019-05-16T07:57:12.179Z,172.00
2019-05-16T07:58:02.152Z,180.00
2019-05-16T07:59:01.155Z,188.00
2019-05-16T08:00:01.173Z,196.00
2019-05-16T08:01:04.470Z,204.00
2019-05-16T08:02:02.116Z,212.00
2019-05-16T08:03:01.102Z,228.00
2019-05-16T08:04:01.133Z,240.00
2019-05-16T08:05:01.125Z,252.00
2019-05-16T08:06:01.712Z,268.00
2019-05-16T08:07:01.135Z,284.00
2019-05-16T08:08:01.044Z,296.00
2019-05-16T08:09:01.167Z,280.00
2019-05-16T08:10:01.064Z,276.00
2019-05-16T08:11:01.688Z,276.00
2019-05-16T08:12:01.844Z,276.00
2019-05-16T08:13:03.329Z,272.00
2019-05-16T08:14:01.140Z,276.00
2019-05-16T08:15:01.038Z,292.00
2019-05-16T08:16:01.455Z,316.00
2019-05-16T08:17:01.265Z,332.00
2019-05-16T08:18:03.140Z,344.00
2019-05-16T08:19:01.201Z,340.00
2019-05-16T08:20:00.930Z,332.00
2019-05-16T08:21:01.562Z,324.00
2019-05-16T08:22:01.448Z,312.00
2019-05-16T08:23:00.983Z,300.00
2019-05-16T08:24:07.104Z,296.00
2019-05-16T08:25:01.894Z,276.00
2019-05-16T08:26:01.407Z,256.00
2019-05-16T08:27:01.837Z,240.00
2019-05-16T08:28:01.327Z,236.00
2019-05-16T08:29:02.013Z,236.00
2019-05-16T08:31:01.817Z,228.00
2019-05-16T08:32:02.103Z,224.00
2019-05-16T08:34:01.753Z,204.00
2019-05-16T08:35:01.346Z,200.00
2019-05-16T08:36:07.158Z,196.00
2019-05-16T08:37:01.726Z,192.00
2019-05-16T08:38:01.240Z,192.00
2019-05-16T08:39:01.225Z,196.00
2019-05-16T08:40:00.688Z,200.00
2019-05-16T08:41:11.633Z,196.00
2019-05-16T08:42:08.048Z,204.00
2019-05-16T08:43:01.653Z,204.00
2019-05-16T08:44:01.317Z,212.00
2019-05-16T08:45:01.952Z,224.00
2019-05-16T08:46:01.170Z,240.00
2019-05-16T08:47:06.294Z,252.00
2019-05-16T08:48:01.601Z,268.00
2019-05-16T08:49:01.094Z,280.00
2019-05-16T08:50:00.862Z,308.00
2019-05-16T08:51:02.828Z,328.00
2019-05-16T08:52:01.532Z,336.00
2019-05-16T08:53:02.878Z,348.00
2019-05-16T08:54:01.534Z,360.00
2019-05-16T08:55:03.556Z,360.00
2019-05-16T08:56:02.622Z,372.00
2019-05-16T08:58:02.821Z,376.00
2019-05-16T08:59:02.677Z,376.00
2019-05-16T09:00:01.484Z,376.00
2019-05-16T09:01:02.317Z,376.00
2019-05-16T09:03:01.847Z,368.00
2019-05-16T09:04:01.510Z,360.00
2019-05-16T09:07:02.142Z,336.00
2019-05-16T09:08:01.032Z,336.00
2019-05-16T09:09:14.441Z,328.00
2019-05-16T09:10:01.370Z,324.00
2019-05-16T09:10:30.767Z,376.00
2019-05-16T09:10:30.921Z,372.00
2019-05-16T09:10:30.922Z,352.00
2019-05-16T09:10:34.455Z,340.00
2019-05-16T09:10:35.110Z,212.00
2019-05-16T09:10:41.850Z,236.00
2019-05-16T09:11:04.830Z,324.00
2019-05-16T09:12:01.368Z,320.00
2019-05-16T09:13:00.317Z,312.00
2019-05-16T09:14:00.301Z,308.00
2019-05-16T09:15:00.296Z,304.00
2019-05-16T09:16:00.303Z,292.00
2019-05-16T09:17:00.295Z,280.00
2019-05-16T09:18:00.264Z,284.00
2019-05-16T09:19:00.301Z,292.00
2019-05-16T09:20:00.241Z,300.00
2019-05-16T09:21:00.231Z,316.00
2019-05-16T09:22:00.249Z,336.00
2019-05-16T09:23:00.212Z,356.00
2019-05-16T09:24:00.197Z,364.00
2019-05-16T09:25:00.188Z,372.00
2019-05-16T09:26:00.173Z,384.00
2019-05-16T09:27:00.187Z,380.00
2019-05-16T09:28:00.150Z,388.00
2019-05-16T09:29:00.141Z,392.00
2019-05-16T09:30:00.147Z,392.00
2019-05-16T09:31:00.119Z,364.00
2019-05-16T09:32:08.905Z,352.00
2019-05-16T09:33:01.097Z,368.00
2019-05-16T09:34:00.086Z,364.00
2019-05-16T09:35:00.078Z,360.00
2019-05-16T09:36:00.064Z,340.00
2019-05-16T09:37:01.427Z,320.00
2019-05-16T09:38:00.036Z,320.00
2019-05-16T09:39:00.025Z,348.00
2019-05-16T09:40:00.012Z,340.00
2019-05-16T09:41:00.004Z,316.00
2019-05-16T09:42:00.017Z,364.00
2019-05-16T09:42:59.977Z,352.00
2019-05-16T09:43:59.963Z,360.00
2019-05-16T09:44:59.956Z,356.00
2019-05-16T09:46:07.627Z,328.00
2019-05-16T09:47:00.965Z,292.00
2019-05-16T09:47:59.926Z,268.00
2019-05-16T09:49:19.293Z,260.00
2019-05-16T09:50:00.913Z,260.00
2019-05-16T09:50:59.925Z,268.00
2019-05-16T09:51:59.903Z,260.00
2019-05-16T09:52:59.886Z,268.00
2019-05-16T09:53:59.863Z,284.00
2019-05-16T09:54:59.836Z,276.00
2019-05-16T09:55:59.833Z,268.00
2019-05-16T09:56:59.818Z,252.00
2019-05-16T09:57:59.834Z,248.00
2019-05-16T09:58:59.790Z,268.00
2019-05-16T09:59:59.843Z,288.00
2019-05-16T10:00:59.780Z,292.00
2019-05-16T10:01:59.756Z,348.00
2019-05-16T10:02:59.774Z,420.00
2019-05-16T10:03:59.738Z,412.00
2019-05-16T10:04:59.725Z,408.00
2019-05-16T10:05:59.715Z,388.00
2019-05-16T10:06:59.699Z,376.00
2019-05-16T10:07:59.727Z,364.00
2019-05-16T10:08:59.687Z,464.00
2019-05-16T10:09:59.674Z,456.00
2019-05-16T10:10:59.655Z,424.00
2019-05-16T10:12:11.929Z,332.00
2019-05-16T10:13:00.807Z,264.00
2019-05-16T10:13:59.628Z,232.00
2019-05-16T10:14:59.917Z,204.00
2019-05-16T10:15:59.603Z,192.00
2019-05-16T10:16:59.586Z,192.00
2019-05-16T10:17:59.614Z,208.00
2019-05-16T10:18:59.571Z,216.00
2019-05-16T10:20:00.087Z,204.00
2019-05-16T10:20:59.550Z,196.00
2019-05-16T10:22:00.334Z,196.00
2019-05-16T10:22:59.581Z,184.00
2019-05-16T10:23:59.541Z,184.00
2019-05-16T10:24:59.522Z,184.00
2019-05-16T10:25:59.485Z,176.00
2019-05-16T10:26:59.475Z,176.00
2019-05-16T10:27:59.473Z,172.00
2019-05-16T10:28:59.485Z,172.00
2019-05-16T10:30:01.068Z,168.00
2019-05-16T10:30:59.426Z,168.00
2019-05-16T10:31:59.422Z,164.00
2019-05-16T10:33:01.007Z,164.00
2019-05-16T10:33:59.425Z,160.00
2019-05-16T10:34:59.393Z,164.00
2019-05-16T10:35:59.409Z,164.00
2019-05-16T10:36:59.355Z,160.00
2019-05-16T10:37:59.345Z,160.00
2019-05-16T10:38:59.387Z,164.00
2019-05-16T10:39:59.998Z,152.00
2019-05-16T10:40:59.310Z,148.00
2019-05-16T10:41:59.299Z,140.00
2019-05-16T10:42:59.290Z,140.00
2019-05-16T10:43:59.299Z,132.00
2019-05-16T10:44:59.266Z,124.00
2019-05-16T10:45:59.251Z,116.00
2019-05-16T10:46:59.251Z,112.00
2019-05-16T10:47:59.244Z,108.00
2019-05-16T10:48:59.250Z,108.00
2019-05-16T10:49:59.227Z,108.00
2019-05-16T10:50:59.199Z,108.00
2019-05-16T10:51:59.190Z,108.00
2019-05-16T10:53:22.630Z,112.00
2019-05-16T10:54:08.898Z,116.00
2019-05-16T10:55:02.447Z,120.00
2019-05-16T10:55:59.160Z,124.00
2019-05-16T10:56:59.225Z,120.00
2019-05-16T10:57:59.121Z,120.00
2019-05-16T10:59:37.766Z,124.00
2019-05-16T11:00:09.116Z,128.00
2019-05-16T11:01:26.587Z,128.00
2019-05-16T11:02:00.074Z,128.00
2019-05-16T11:02:59.096Z,128.00
2019-05-16T11:03:59.078Z,124.00
2019-05-16T11:05:14.229Z,128.00
2019-05-16T11:06:05.018Z,124.00
2019-05-16T11:07:00.018Z,120.00
2019-05-16T11:07:59.046Z,120.00
2019-05-16T11:08:59.025Z,120.00
2019-05-16T11:10:03.286Z,120.00
2019-05-16T11:10:58.985Z,120.00
2019-05-16T11:11:58.976Z,124.00
2019-05-16T11:12:59.798Z,132.00
2019-05-16T11:13:58.978Z,148.00
2019-05-16T11:14:58.970Z,160.00
2019-05-16T11:15:59.162Z,172.00
2019-05-16T11:16:58.912Z,180.00
2019-05-16T11:18:00.155Z,176.00
2019-05-16T11:19:13.770Z,164.00
2019-05-16T11:19:59.895Z,152.00
2019-05-16T11:20:58.861Z,144.00
2019-05-16T11:21:58.852Z,140.00
2019-05-16T11:22:58.844Z,132.00
2019-05-16T11:23:58.834Z,124.00
2019-05-16T11:24:58.848Z,120.00
2019-05-16T11:25:58.806Z,116.00
2019-05-16T11:26:58.795Z,116.00
2019-05-16T11:27:58.782Z,120.00
2019-05-16T11:28:58.782Z,120.00
2019-05-16T11:29:58.793Z,120.00
2019-05-16T11:31:03.290Z,116.00
2019-05-16T11:31:58.738Z,120.00
2019-05-16T11:32:58.725Z,120.00
2019-05-16T11:33:58.716Z,124.00
2019-05-16T11:34:58.738Z,128.00
2019-05-16T11:35:58.696Z,136.00
2019-05-16T11:36:58.685Z,144.00
2019-05-16T11:37:58.683Z,156.00
2019-05-16T11:39:01.947Z,168.00
2019-05-16T11:39:58.650Z,184.00
2019-05-16T11:40:58.664Z,200.00
2019-05-16T11:41:58.622Z,216.00
2019-05-16T11:43:10.611Z,232.00
2019-05-16T11:43:59.629Z,256.00
2019-05-16T11:44:58.601Z,272.00
2019-05-16T11:45:58.611Z,280.00
2019-05-16T11:46:58.585Z,300.00
2019-05-16T11:47:58.560Z,328.00
2019-05-16T11:48:58.550Z,344.00
2019-05-16T11:49:58.554Z,356.00
2019-05-16T11:50:58.554Z,372.00
2019-05-16T11:51:58.519Z,392.00
2019-05-16T11:52:58.506Z,388.00
2019-05-16T11:53:59.971Z,384.00
2019-05-16T11:54:58.486Z,380.00
2019-05-16T11:56:01.606Z,400.00
2019-05-16T11:56:58.459Z,436.00
2019-05-16T11:57:58.454Z,532.00
2019-05-16T11:58:58.448Z,476.00
2019-05-16T11:59:58.422Z,460.00
2019-05-16T12:00:58.435Z,464.00
2019-05-16T12:01:58.404Z,512.00
2019-05-16T12:02:58.388Z,552.00
2019-05-16T12:03:58.376Z,520.00
2019-05-16T12:04:58.367Z,504.00
2019-05-16T12:06:59.466Z,452.00
2019-05-16T12:07:58.405Z,416.00
2019-05-16T12:08:58.342Z,384.00
2019-05-16T12:09:58.321Z,336.00
2019-05-16T12:10:58.332Z,296.00
2019-05-16T12:12:59.669Z,260.00
2019-05-16T12:13:58.269Z,252.00
2019-05-16T12:14:58.461Z,248.00
2019-05-16T12:15:58.263Z,244.00
2019-05-16T12:16:58.266Z,244.00
2019-05-16T12:18:03.918Z,240.00
2019-05-16T12:18:59.216Z,240.00
2019-05-16T12:19:58.194Z,260.00
2019-05-16T12:20:58.179Z,296.00
2019-05-16T12:21:58.207Z,380.00
2019-05-16T12:22:58.157Z,456.00
2019-05-16T12:23:58.149Z,476.00
2019-05-16T12:24:58.139Z,412.00
2019-05-16T12:26:00.149Z,344.00
2019-05-16T12:27:00.805Z,336.00
2019-05-16T12:27:58.111Z,364.00
2019-05-16T12:28:58.090Z,400.00
2019-05-16T12:29:59.016Z,408.00
2019-05-16T12:30:58.065Z,380.00
2019-05-16T12:32:02.574Z,332.00
2019-05-16T12:32:58.250Z,288.00
2019-05-16T12:33:59.711Z,260.00
2019-05-16T12:34:58.028Z,244.00
2019-05-16T12:35:58.016Z,228.00
2019-05-16T12:36:58.049Z,216.00
2019-05-16T12:37:57.988Z,196.00
2019-05-16T12:38:57.972Z,184.00
2019-05-16T12:39:57.966Z,180.00
2019-05-16T12:40:57.961Z,172.00
2019-05-16T12:41:59.643Z,168.00
2019-05-16T12:42:57.926Z,160.00
2019-05-16T12:43:58.085Z,156.00
2019-05-16T12:44:57.913Z,152.00
2019-05-16T12:45:57.891Z,148.00
2019-05-16T12:46:57.918Z,148.00
2019-05-16T12:47:57.869Z,152.00
2019-05-16T12:48:57.866Z,156.00
2019-05-16T12:49:57.853Z,148.00
2019-05-16T12:50:58.945Z,144.00
2019-05-16T12:51:57.856Z,136.00